Arden, New York
Current Conditions -  °F | °C
As of 11:45 AM on Friday 19 Dec 2014 (Local Time) from KSWF Reporting Station
Broken Clouds Broken Clouds  
Wind Chill: -4°   Ceiling: 4000
Heat Index:   Visibility: 20mi
Dew Point: -5°   Wind: 14mph
Humidity: 65%   Direction: 310°NW
Pressure: 30.04"   Gusts: 25mph
Location:  41.27°N, 74.15°W
Report Text: KSWF 191645Z 31012G22KT 20SM BKN040 01/M05 A3004
Loading
Personal Weather Stations






























Interactive Weather Map New forecast layout! Learn more

10-Day Weather Forecast

Advertisements
Track Severe Weather on mobile